sensor_id;sensor_type;location;lat;lon;timestamp;pressure;altitude;pressure_sealevel;temperature;humidity
75136;BME280;63707;52.212;9.540;2023-02-04T00:00:52;101190.28;;;3.60;100.00
75136;BME280;63707;52.212;9.540;2023-02-04T00:03:17;101196.81;;;3.57;100.00
75136;BME280;63707;52.212;9.540;2023-02-04T00:05:43;101195.22;;;3.55;100.00
75136;BME280;63707;52.212;9.540;2023-02-04T00:08:09;101202.28;;;3.46;100.00
75136;BME280;63707;52.212;9.540;2023-02-04T00:10:36;101196.88;;;3.46;100.00
75136;BME280;63707;52.212;9.540;2023-02-04T00:13:02;101192.03;;;3.40;100.00
75136;BME280;63707;52.212;9.540;2023-02-04T00:15:28;101190.09;;;3.31;100.00
75136;BME280;63707;52.212;9.540;2023-02-04T00:17:54;101204.75;;;3.17;100.00
75136;BME280;63707;52.212;9.540;2023-02-04T00:20:19;101195.94;;;3.15;100.00
75136;BME280;63707;52.212;9.540;2023-02-04T00:22:45;101202.25;;;3.04;100.00
75136;BME280;63707;52.212;9.540;2023-02-04T00:25:11;101206.06;;;3.02;100.00
75136;BME280;63707;52.212;9.540;2023-02-04T00:27:37;101215.97;;;3.01;100.00
75136;BME280;63707;52.212;9.540;2023-02-04T00:30:04;101210.91;;;2.87;100.00
75136;BME280;63707;52.212;9.540;2023-02-04T00:35:08;101219.09;;;2.86;100.00
75136;BME280;63707;52.212;9.540;2023-02-04T00:37:34;101240.53;;;2.87;100.00
75136;BME280;63707;52.212;9.540;2023-02-04T00:40:00;101234.41;;;2.85;100.00
75136;BME280;63707;52.212;9.540;2023-02-04T00:42:26;101234.16;;;2.77;100.00
75136;BME280;63707;52.212;9.540;2023-02-04T00:44:53;101238.44;;;2.79;100.00
75136;BME280;63707;52.212;9.540;2023-02-04T00:47:18;101254.63;;;2.68;100.00
75136;BME280;63707;52.212;9.540;2023-02-04T00:49:44;101259.06;;;2.47;100.00
75136;BME280;63707;52.212;9.540;2023-02-04T00:52:09;101266.06;;;2.38;100.00
75136;BME280;63707;52.212;9.540;2023-02-04T00:54:35;101263.84;;;2.43;100.00
75136;BME280;63707;52.212;9.540;2023-02-04T00:57:00;101265.31;;;2.36;100.00
75136;BME280;63707;52.212;9.540;2023-02-04T00:59:26;101282.78;;;2.53;100.00
75136;BME280;63707;52.212;9.540;2023-02-04T01:01:53;101282.16;;;2.61;100.00
75136;BME280;63707;52.212;9.540;2023-02-04T01:04:18;101297.00;;;2.44;100.00
75136;BME280;63707;52.212;9.540;2023-02-04T01:06:44;101294.28;;;2.33;100.00
75136;BME280;63707;52.212;9.540;2023-02-04T01:09:09;101307.72;;;2.33;100.00
75136;BME280;63707;52.212;9.540;2023-02-04T01:11:35;101304.91;;;2.34;100.00
75136;BME280;63707;52.212;9.540;2023-02-04T01:14:01;101307.72;;;2.33;100.00
75136;BME280;63707;52.212;9.540;2023-02-04T01:16:27;101318.50;;;2.21;100.00
75136;BME280;63707;52.212;9.540;2023-02-04T01:18:54;101322.03;;;2.11;100.00
75136;BME280;63707;52.212;9.540;2023-02-04T01:21:20;101316.91;;;2.41;100.00
75136;BME280;63707;52.212;9.540;2023-02-04T01:23:46;101334.28;;;2.48;100.00
75136;BME280;63707;52.212;9.540;2023-02-04T01:26:11;101334.63;;;2.21;100.00
75136;BME280;63707;52.212;9.540;2023-02-04T01:28:36;101325.44;;;2.13;100.00
75136;BME280;63707;52.212;9.540;2023-02-04T01:31:02;101332.41;;;2.15;100.00
75136;BME280;63707;52.212;9.540;2023-02-04T01:33:28;101345.97;;;2.14;100.00
75136;BME280;63707;52.212;9.540;2023-02-04T01:35:55;101362.22;;;2.01;100.00
75136;BME280;63707;52.212;9.540;2023-02-04T01:38:21;101365.38;;;1.95;100.00
75136;BME280;63707;52.212;9.540;2023-02-04T01:40:46;101366.38;;;2.05;100.00
75136;BME280;63707;52.212;9.540;2023-02-04T01:43:12;101376.91;;;2.08;100.00
75136;BME280;63707;52.212;9.540;2023-02-04T01:45:37;101383.25;;;2.07;100.00
75136;BME280;63707;52.212;9.540;2023-02-04T01:48:04;101384.13;;;2.19;100.00
75136;BME280;63707;52.212;9.540;2023-02-04T01:50:31;101389.88;;;2.26;100.00
75136;BME280;63707;52.212;9.540;2023-02-04T01:52:59;101389.13;;;2.35;100.00
75136;BME280;63707;52.212;9.540;2023-02-04T01:55:26;101396.34;;;2.34;100.00
75136;BME280;63707;52.212;9.540;2023-02-04T01:57:52;101405.63;;;2.30;100.00
75136;BME280;63707;52.212;9.540;2023-02-04T02:00:22;101404.16;;;2.26;100.00
75136;BME280;63707;52.212;9.540;2023-02-04T02:02:50;101417.72;;;2.25;100.00
75136;BME280;63707;52.212;9.540;2023-02-04T02:05:19;101418.00;;;2.33;100.00
75136;BME280;63707;52.212;9.540;2023-02-04T02:07:48;101426.47;;;2.39;100.00
75136;BME280;63707;52.212;9.540;2023-02-04T02:10:16;101436.84;;;2.44;100.00
75136;BME280;63707;52.212;9.540;2023-02-04T02:12:43;101442.84;;;2.47;100.00
75136;BME280;63707;52.212;9.540;2023-02-04T02:15:09;101441.03;;;2.48;100.00
75136;BME280;63707;52.212;9.540;2023-02-04T02:17:35;101438.81;;;2.42;100.00
75136;BME280;63707;52.212;9.540;2023-02-04T02:20:01;101444.44;;;2.39;100.00
75136;BME280;63707;52.212;9.540;2023-02-04T02:22:31;101450.88;;;2.36;100.00
75136;BME280;63707;52.212;9.540;2023-02-04T02:24:59;101451.91;;;2.46;100.00
75136;BME280;63707;52.212;9.540;2023-02-04T02:27:24;101455.44;;;2.47;100.00
75136;BME280;63707;52.212;9.540;2023-02-04T02:29:50;101462.66;;;2.46;100.00
75136;BME280;63707;52.212;9.540;2023-02-04T02:32:16;101469.13;;;2.44;100.00
75136;BME280;63707;52.212;9.540;2023-02-04T02:34:43;101473.78;;;2.42;100.00
75136;BME280;63707;52.212;9.540;2023-02-04T02:37:10;101487.97;;;2.44;100.00
75136;BME280;63707;52.212;9.540;2023-02-04T02:39:37;101475.38;;;2.44;100.00
75136;BME280;63707;52.212;9.540;2023-02-04T02:42:05;101475.50;;;2.43;100.00
75136;BME280;63707;52.212;9.540;2023-02-04T02:44:31;101488.59;;;2.47;100.00
75136;BME280;63707;52.212;9.540;2023-02-04T02:46:57;101493.22;;;2.45;100.00
75136;BME280;63707;52.212;9.540;2023-02-04T02:49:24;101501.31;;;2.45;100.00
75136;BME280;63707;52.212;9.540;2023-02-04T02:51:50;101504.00;;;2.45;100.00
75136;BME280;63707;52.212;9.540;2023-02-04T02:54:20;101512.91;;;2.46;100.00
75136;BME280;63707;52.212;9.540;2023-02-04T02:56:46;101518.41;;;2.44;100.00
75136;BME280;63707;52.212;9.540;2023-02-04T02:59:15;101521.34;;;2.41;100.00
75136;BME280;63707;52.212;9.540;2023-02-04T03:01:41;101525.97;;;2.39;100.00
75136;BME280;63707;52.212;9.540;2023-02-04T03:04:07;101524.47;;;2.35;100.00
75136;BME280;63707;52.212;9.540;2023-02-04T03:06:33;101527.94;;;2.37;100.00
75136;BME280;63707;52.212;9.540;2023-02-04T03:08:59;101529.97;;;2.34;100.00
75136;BME280;63707;52.212;9.540;2023-02-04T03:11:24;101539.00;;;2.33;100.00
75136;BME280;63707;52.212;9.540;2023-02-04T03:13:54;101541.47;;;2.36;100.00
75136;BME280;63707;52.212;9.540;2023-02-04T03:16:21;101553.19;;;2.35;100.00
75136;BME280;63707;52.212;9.540;2023-02-04T03:18:47;101561.75;;;2.29;100.00
75136;BME280;63707;52.212;9.540;2023-02-04T03:21:13;101559.06;;;2.29;100.00
75136;BME280;63707;52.212;9.540;2023-02-04T03:23:38;101555.38;;;2.30;100.00
75136;BME280;63707;52.212;9.540;2023-02-04T03:26:04;101557.34;;;2.28;100.00
75136;BME280;63707;52.212;9.540;2023-02-04T03:28:30;101571.00;;;2.25;100.00
75136;BME280;63707;52.212;9.540;2023-02-04T03:30:56;101577.13;;;2.27;100.00
75136;BME280;63707;52.212;9.540;2023-02-04T03:33:25;101576.16;;;2.28;100.00
75136;BME280;63707;52.212;9.540;2023-02-04T03:35:53;101585.31;;;2.25;100.00
75136;BME280;63707;52.212;9.540;2023-02-04T03:38:18;101583.50;;;2.26;100.00
75136;BME280;63707;52.212;9.540;2023-02-04T03:40:44;101590.69;;;2.25;100.00
75136;BME280;63707;52.212;9.540;2023-02-04T03:43:10;101592.41;;;2.26;100.00
75136;BME280;63707;52.212;9.540;2023-02-04T03:45:35;101603.16;;;2.26;100.00
75136;BME280;63707;52.212;9.540;2023-02-04T03:48:01;101605.84;;;2.26;100.00
75136;BME280;63707;52.212;9.540;2023-02-04T03:50:28;101611.13;;;2.28;100.00
75136;BME280;63707;52.212;9.540;2023-02-04T03:52:53;101617.47;;;2.27;100.00
75136;BME280;63707;52.212;9.540;2023-02-04T03:55:19;101622.84;;;2.27;100.00
75136;BME280;63707;52.212;9.540;2023-02-04T03:57:44;101641.91;;;2.24;100.00
75136;BME280;63707;52.212;9.540;2023-02-04T04:00:11;101643.09;;;2.19;100.00
75136;BME280;63707;52.212;9.540;2023-02-04T04:02:36;101637.22;;;2.14;100.00
75136;BME280;63707;52.212;9.540;2023-02-04T04:05:02;101640.13;;;2.11;100.00
75136;BME280;63707;52.212;9.540;2023-02-04T04:07:29;101635.09;;;2.07;100.00
75136;BME280;63707;52.212;9.540;2023-02-04T04:09:55;101631.91;;;2.02;100.00
75136;BME280;63707;52.212;9.540;2023-02-04T04:12:20;101648.38;;;1.97;100.00
75136;BME280;63707;52.212;9.540;2023-02-04T04:14:45;101648.69;;;1.93;100.00
75136;BME280;63707;52.212;9.540;2023-02-04T04:17:11;101658.69;;;1.91;100.00
75136;BME280;63707;52.212;9.540;2023-02-04T04:19:36;101660.84;;;1.85;100.00
75136;BME280;63707;52.212;9.540;2023-02-04T04:22:02;101670.72;;;1.85;100.00
75136;BME280;63707;52.212;9.540;2023-02-04T04:24:29;101676.31;;;1.82;100.00
75136;BME280;63707;52.212;9.540;2023-02-04T04:26:54;101690.84;;;1.79;100.00
75136;BME280;63707;52.212;9.540;2023-02-04T04:29:20;101690.94;;;1.78;100.00
75136;BME280;63707;52.212;9.540;2023-02-04T04:31:45;101695.69;;;1.74;100.00
75136;BME280;63707;52.212;9.540;2023-02-04T04:34:11;101702.34;;;1.69;100.00
75136;BME280;63707;52.212;9.540;2023-02-04T04:36:36;101699.88;;;1.66;100.00
75136;BME280;63707;52.212;9.540;2023-02-04T04:39:02;101712.69;;;1.62;100.00
75136;BME280;63707;52.212;9.540;2023-02-04T04:41:29;101721.28;;;1.54;100.00
75136;BME280;63707;52.212;9.540;2023-02-04T04:43:55;101722.25;;;1.53;100.00
75136;BME280;63707;52.212;9.540;2023-02-04T04:46:20;101725.06;;;1.52;100.00
75136;BME280;63707;52.212;9.540;2023-02-04T04:48:45;101726.34;;;1.46;100.00
75136;BME280;63707;52.212;9.540;2023-02-04T04:51:11;101725.03;;;1.39;100.00
75136;BME280;63707;52.212;9.540;2023-02-04T04:53:36;101730.06;;;1.31;100.00
75136;BME280;63707;52.212;9.540;2023-02-04T04:56:02;101728.78;;;1.24;100.00
75136;BME280;63707;52.212;9.540;2023-02-04T04:58:29;101731.44;;;1.24;100.00
75136;BME280;63707;52.212;9.540;2023-02-04T05:00:54;101734.34;;;1.21;100.00
75136;BME280;63707;52.212;9.540;2023-02-04T05:03:20;101737.03;;;1.21;100.00
75136;BME280;63707;52.212;9.540;2023-02-04T05:05:45;101742.50;;;1.19;100.00
75136;BME280;63707;52.212;9.540;2023-02-04T05:08:11;101748.53;;;1.23;100.00
75136;BME280;63707;52.212;9.540;2023-02-04T05:10:41;101755.06;;;1.19;100.00
75136;BME280;63707;52.212;9.540;2023-02-04T05:13:07;101752.81;;;1.13;100.00
75136;BME280;63707;52.212;9.540;2023-02-04T05:15:34;101756.56;;;1.10;100.00
75136;BME280;63707;52.212;9.540;2023-02-04T05:18:00;101754.84;;;1.09;100.00
75136;BME280;63707;52.212;9.540;2023-02-04T05:20:25;101753.78;;;1.12;100.00
75136;BME280;63707;52.212;9.540;2023-02-04T05:22:51;101770.75;;;1.12;100.00
75136;BME280;63707;52.212;9.540;2023-02-04T05:25:16;101765.03;;;1.04;100.00
75136;BME280;63707;52.212;9.540;2023-02-04T05:27:42;101764.75;;;0.94;100.00
75136;BME280;63707;52.212;9.540;2023-02-04T05:30:09;101776.66;;;0.90;100.00
75136;BME280;63707;52.212;9.540;2023-02-04T05:32:37;101789.53;;;0.85;100.00
75136;BME280;63707;52.212;9.540;2023-02-04T05:35:02;101790.25;;;0.75;100.00
75136;BME280;63707;52.212;9.540;2023-02-04T05:37:28;101798.41;;;0.73;100.00
75136;BME280;63707;52.212;9.540;2023-02-04T05:39:53;101796.06;;;0.54;100.00
75136;BME280;63707;52.212;9.540;2023-02-04T05:42:19;101797.97;;;0.38;100.00
75136;BME280;63707;52.212;9.540;2023-02-04T05:44:44;101798.38;;;0.32;100.00
75136;BME280;63707;52.212;9.540;2023-02-04T05:47:10;101799.47;;;0.15;100.00
75136;BME280;63707;52.212;9.540;2023-02-04T05:49:37;101806.81;;;-0.03;100.00
75136;BME280;63707;52.212;9.540;2023-02-04T05:52:02;101810.16;;;-0.27;100.00
75136;BME280;63707;52.212;9.540;2023-02-04T05:54:28;101807.38;;;-0.40;100.00
75136;BME280;63707;52.212;9.540;2023-02-04T05:56:54;101812.47;;;-0.51;100.00
75136;BME280;63707;52.212;9.540;2023-02-04T05:59:19;101818.56;;;-0.34;100.00
75136;BME280;63707;52.212;9.540;2023-02-04T06:01:45;101825.38;;;-0.28;100.00
75136;BME280;63707;52.212;9.540;2023-02-04T06:04:10;101823.34;;;-0.24;100.00
75136;BME280;63707;52.212;9.540;2023-02-04T06:06:37;101835.88;;;-0.39;100.00
75136;BME280;63707;52.212;9.540;2023-02-04T06:09:02;101832.63;;;-0.60;100.00
75136;BME280;63707;52.212;9.540;2023-02-04T06:11:28;101833.47;;;-0.74;100.00
75136;BME280;63707;52.212;9.540;2023-02-04T06:13:54;101834.50;;;-0.76;100.00
75136;BME280;63707;52.212;9.540;2023-02-04T06:16:19;101836.91;;;-0.72;100.00
75136;BME280;63707;52.212;9.540;2023-02-04T06:18:45;101848.47;;;-0.71;100.00
75136;BME280;63707;52.212;9.540;2023-02-04T06:21:10;101853.38;;;-0.64;100.00
75136;BME280;63707;52.212;9.540;2023-02-04T06:23:37;101846.69;;;-0.56;100.00
75136;BME280;63707;52.212;9.540;2023-02-04T06:26:03;101854.59;;;-0.69;100.00
75136;BME280;63707;52.212;9.540;2023-02-04T06:28:28;101854.16;;;-0.61;100.00
75136;BME280;63707;52.212;9.540;2023-02-04T06:30:54;101863.31;;;-0.66;100.00
75136;BME280;63707;52.212;9.540;2023-02-04T06:33:19;101875.06;;;-0.68;100.00
75136;BME280;63707;52.212;9.540;2023-02-04T06:35:47;101875.16;;;-0.70;100.00
75136;BME280;63707;52.212;9.540;2023-02-04T06:38:13;101875.38;;;-0.58;100.00
75136;BME280;63707;52.212;9.540;2023-02-04T06:40:40;101869.75;;;-0.54;100.00
75136;BME280;63707;52.212;9.540;2023-02-04T06:43:05;101872.69;;;-0.58;100.00
75136;BME280;63707;52.212;9.540;2023-02-04T06:45:31;101882.19;;;-0.53;100.00
75136;BME280;63707;52.212;9.540;2023-02-04T06:47:56;101886.25;;;-0.46;100.00
75136;BME280;63707;52.212;9.540;2023-02-04T06:50:22;101894.88;;;-0.41;100.00
75136;BME280;63707;52.212;9.540;2023-02-04T06:52:47;101885.34;;;-0.30;100.00
75136;BME280;63707;52.212;9.540;2023-02-04T06:55:13;101899.97;;;-0.36;100.00
75136;BME280;63707;52.212;9.540;2023-02-04T06:57:41;101907.53;;;-0.28;100.00
75136;BME280;63707;52.212;9.540;2023-02-04T07:00:08;101913.28;;;-0.20;100.00
75136;BME280;63707;52.212;9.540;2023-02-04T07:02:34;101914.16;;;-0.20;100.00
75136;BME280;63707;52.212;9.540;2023-02-04T07:05:00;101927.81;;;-0.24;100.00
75136;BME280;63707;52.212;9.540;2023-02-04T07:07:26;101933.53;;;-0.30;100.00
75136;BME280;63707;52.212;9.540;2023-02-04T07:09:52;101930.88;;;-0.30;100.00
75136;BME280;63707;52.212;9.540;2023-02-04T07:12:17;101932.91;;;-0.20;100.00
75136;BME280;63707;52.212;9.540;2023-02-04T07:14:44;101922.41;;;-0.09;100.00
75136;BME280;63707;52.212;9.540;2023-02-04T07:17:09;101921.00;;;0.00;100.00
75136;BME280;63707;52.212;9.540;2023-02-04T07:19:35;101926.00;;;0.06;100.00
75136;BME280;63707;52.212;9.540;2023-02-04T07:22:01;101924.88;;;0.24;100.00
75136;BME280;63707;52.212;9.540;2023-02-04T07:24:26;101932.28;;;0.49;100.00
75136;BME280;63707;52.212;9.540;2023-02-04T07:26:52;101935.13;;;0.75;100.00
75136;BME280;63707;52.212;9.540;2023-02-04T07:29:17;101949.56;;;0.86;100.00
75136;BME280;63707;52.212;9.540;2023-02-04T07:31:47;101947.16;;;1.10;100.00
75136;BME280;63707;52.212;9.540;2023-02-04T07:34:15;101954.66;;;1.05;100.00
75136;BME280;63707;52.212;9.540;2023-02-04T07:36:41;101958.28;;;1.04;100.00
75136;BME280;63707;52.212;9.540;2023-02-04T07:39:07;101962.00;;;1.16;100.00
75136;BME280;63707;52.212;9.540;2023-02-04T07:41:32;101959.06;;;1.33;100.00
75136;BME280;63707;52.212;9.540;2023-02-04T07:43:58;101969.06;;;1.31;100.00
75136;BME280;63707;52.212;9.540;2023-02-04T07:46:23;101970.66;;;1.07;100.00
75136;BME280;63707;52.212;9.540;2023-02-04T07:48:50;101971.06;;;1.01;100.00
75136;BME280;63707;52.212;9.540;2023-02-04T07:51:15;101963.47;;;1.34;100.00
75136;BME280;63707;52.212;9.540;2023-02-04T07:53:41;101961.72;;;2.77;100.00
75136;BME280;63707;52.212;9.540;2023-02-04T07:56:06;101956.50;;;5.21;100.00
75136;BME280;63707;52.212;9.540;2023-02-04T07:58:32;101967.72;;;5.60;100.00
75136;BME280;63707;52.212;9.540;2023-02-04T08:00:58;101981.13;;;5.50;100.00
75136;BME280;63707;52.212;9.540;2023-02-04T08:03:23;102001.00;;;3.05;100.00
75136;BME280;63707;52.212;9.540;2023-02-04T08:05:50;102007.31;;;1.49;100.00
75136;BME280;63707;52.212;9.540;2023-02-04T08:08:15;102006.88;;;1.14;100.00
75136;BME280;63707;52.212;9.540;2023-02-04T08:10:41;102015.31;;;0.93;100.00
75136;BME280;63707;52.212;9.540;2023-02-04T08:13:06;102006.03;;;0.85;100.00
75136;BME280;63707;52.212;9.540;2023-02-04T08:15:32;102011.59;;;0.68;100.00
75136;BME280;63707;52.212;9.540;2023-02-04T08:17:57;102008.22;;;0.78;100.00
75136;BME280;63707;52.212;9.540;2023-02-04T08:20:23;102006.50;;;0.91;100.00
75136;BME280;63707;52.212;9.540;2023-02-04T08:22:50;102005.34;;;1.10;100.00
75136;BME280;63707;52.212;9.540;2023-02-04T08:25:15;102010.19;;;1.32;100.00
75136;BME280;63707;52.212;9.540;2023-02-04T08:27:41;101995.81;;;1.33;100.00
75136;BME280;63707;52.212;9.540;2023-02-04T08:30:07;102002.34;;;1.43;100.00
75136;BME280;63707;52.212;9.540;2023-02-04T08:32:33;102003.97;;;1.45;100.00
75136;BME280;63707;52.212;9.540;2023-02-04T08:34:59;102007.97;;;1.52;100.00
75136;BME280;63707;52.212;9.540;2023-02-04T08:37:25;102015.34;;;1.49;100.00
75136;BME280;63707;52.212;9.540;2023-02-04T08:39:52;102020.22;;;1.56;100.00
75136;BME280;63707;52.212;9.540;2023-02-04T08:42:17;102014.03;;;1.69;100.00
75136;BME280;63707;52.212;9.540;2023-02-04T08:44:43;102023.38;;;1.63;100.00
75136;BME280;63707;52.212;9.540;2023-02-04T08:47:09;102025.81;;;1.53;100.00
75136;BME280;63707;52.212;9.540;2023-02-04T08:49:34;102026.81;;;1.65;100.00
75136;BME280;63707;52.212;9.540;2023-02-04T08:52:00;102038.06;;;1.57;100.00
75136;BME280;63707;52.212;9.540;2023-02-04T08:54:27;102034.16;;;1.49;100.00
75136;BME280;63707;52.212;9.540;2023-02-04T08:56:54;102040.59;;;1.73;100.00
75136;BME280;63707;52.212;9.540;2023-02-04T08:59:19;102041.16;;;1.51;100.00
75136;BME280;63707;52.212;9.540;2023-02-04T09:01:46;102050.03;;;1.66;100.00
75136;BME280;63707;52.212;9.540;2023-02-04T09:04:13;102048.91;;;1.56;100.00
75136;BME280;63707;52.212;9.540;2023-02-04T09:06:38;102049.94;;;1.68;100.00
75136;BME280;63707;52.212;9.540;2023-02-04T09:09:04;102053.94;;;1.75;100.00
75136;BME280;63707;52.212;9.540;2023-02-04T09:11:29;102061.41;;;1.84;100.00
75136;BME280;63707;52.212;9.540;2023-02-04T09:13:56;102060.84;;;1.79;100.00
75136;BME280;63707;52.212;9.540;2023-02-04T09:16:22;102057.66;;;2.66;100.00
75136;BME280;63707;52.212;9.540;2023-02-04T09:18:47;102060.31;;;3.29;100.00
75136;BME280;63707;52.212;9.540;2023-02-04T09:21:13;102064.16;;;4.11;100.00
75136;BME280;63707;52.212;9.540;2023-02-04T09:23:38;102071.44;;;3.12;100.00
75136;BME280;63707;52.212;9.540;2023-02-04T09:26:04;102069.72;;;4.21;100.00
75136;BME280;63707;52.212;9.540;2023-02-04T09:28:30;102079.16;;;3.55;100.00
75136;BME280;63707;52.212;9.540;2023-02-04T09:30:57;102068.25;;;3.56;100.00
75136;BME280;63707;52.212;9.540;2023-02-04T09:33:24;102079.16;;;4.39;100.00
75136;BME280;63707;52.212;9.540;2023-02-04T09:35:49;102069.16;;;4.04;100.00
75136;BME280;63707;52.212;9.540;2023-02-04T09:38:15;102083.84;;;3.02;100.00
75136;BME280;63707;52.212;9.540;2023-02-04T09:40:42;102087.38;;;3.40;100.00
75136;BME280;63707;52.212;9.540;2023-02-04T09:43:12;102084.75;;;2.50;100.00
75136;BME280;63707;52.212;9.540;2023-02-04T09:45:39;102097.47;;;2.61;100.00
75136;BME280;63707;52.212;9.540;2023-02-04T09:48:06;102103.66;;;3.13;100.00
75136;BME280;63707;52.212;9.540;2023-02-04T09:50:35;102106.78;;;3.45;100.00
75136;BME280;63707;52.212;9.540;2023-02-04T09:53:02;102103.00;;;3.23;100.00
75136;BME280;63707;52.212;9.540;2023-02-04T09:55:31;102103.22;;;3.45;100.00
75136;BME280;63707;52.212;9.540;2023-02-04T09:57:57;102104.22;;;3.81;100.00
75136;BME280;63707;52.212;9.540;2023-02-04T10:00:24;102116.69;;;3.07;100.00
75136;BME280;63707;52.212;9.540;2023-02-04T10:02:51;102108.53;;;4.07;100.00
75136;BME280;63707;52.212;9.540;2023-02-04T10:05:20;102117.84;;;3.54;100.00
75136;BME280;63707;52.212;9.540;2023-02-04T10:07:49;102118.81;;;3.53;100.00
75136;BME280;63707;52.212;9.540;2023-02-04T10:10:16;102124.88;;;4.29;100.00
75136;BME280;63707;52.212;9.540;2023-02-04T10:12:43;102137.34;;;4.06;100.00
75136;BME280;63707;52.212;9.540;2023-02-04T10:15:13;102124.97;;;4.28;100.00
75136;BME280;63707;52.212;9.540;2023-02-04T10:17:38;102123.34;;;4.25;100.00
75136;BME280;63707;52.212;9.540;2023-02-04T10:20:04;102121.59;;;4.37;100.00
75136;BME280;63707;52.212;9.540;2023-02-04T10:22:32;102124.31;;;4.48;100.00
75136;BME280;63707;52.212;9.540;2023-02-04T10:24:59;102121.81;;;5.04;100.00
75136;BME280;63707;52.212;9.540;2023-02-04T10:27:25;102131.41;;;4.38;100.00
75136;BME280;63707;52.212;9.540;2023-02-04T10:29:54;102127.34;;;4.67;100.00
75136;BME280;63707;52.212;9.540;2023-02-04T10:32:28;102130.78;;;4.34;100.00
75136;BME280;63707;52.212;9.540;2023-02-04T10:34:59;102135.47;;;4.20;100.00
75136;BME280;63707;52.212;9.540;2023-02-04T10:37:24;102133.03;;;3.67;100.00
75136;BME280;63707;52.212;9.540;2023-02-04T10:39:51;102135.22;;;3.11;100.00
75136;BME280;63707;52.212;9.540;2023-02-04T10:42:20;102133.41;;;3.12;100.00
75136;BME280;63707;52.212;9.540;2023-02-04T10:44:46;102139.00;;;3.09;100.00
75136;BME280;63707;52.212;9.540;2023-02-04T10:47:15;102140.50;;;2.48;100.00
75136;BME280;63707;52.212;9.540;2023-02-04T10:49:50;102141.50;;;2.60;100.00
75136;BME280;63707;52.212;9.540;2023-02-04T10:52:19;102144.38;;;2.44;100.00
75136;BME280;63707;52.212;9.540;2023-02-04T10:54:46;102153.13;;;3.12;100.00
75136;BME280;63707;52.212;9.540;2023-02-04T10:57:17;102145.91;;;4.00;100.00
75136;BME280;63707;52.212;9.540;2023-02-04T10:59:44;102149.44;;;3.64;100.00
75136;BME280;63707;52.212;9.540;2023-02-04T11:02:41;102138.88;;;3.23;100.00
75136;BME280;63707;52.212;9.540;2023-02-04T11:05:13;102145.13;;;2.86;100.00
75136;BME280;63707;52.212;9.540;2023-02-04T11:07:39;102146.84;;;3.63;100.00
75136;BME280;63707;52.212;9.540;2023-02-04T11:10:06;102137.28;;;3.95;100.00
75136;BME280;63707;52.212;9.540;2023-02-04T11:12:39;102133.47;;;5.16;100.00
75136;BME280;63707;52.212;9.540;2023-02-04T11:18:01;102142.97;;;3.54;100.00
75136;BME280;63707;52.212;9.540;2023-02-04T11:20:30;102142.09;;;4.39;100.00
75136;BME280;63707;52.212;9.540;2023-02-04T11:23:13;102139.84;;;5.03;100.00
75136;BME280;63707;52.212;9.540;2023-02-04T11:25:39;102143.31;;;4.23;100.00
75136;BME280;63707;52.212;9.540;2023-02-04T11:28:13;102149.16;;;4.29;100.00
75136;BME280;63707;52.212;9.540;2023-02-04T11:30:39;102153.72;;;3.79;100.00
75136;BME280;63707;52.212;9.540;2023-02-04T11:33:21;102150.91;;;4.18;100.00
75136;BME280;63707;52.212;9.540;2023-02-04T11:35:59;102148.72;;;3.37;100.00
75136;BME280;63707;52.212;9.540;2023-02-04T11:38:26;102160.97;;;3.03;100.00
75136;BME280;63707;52.212;9.540;2023-02-04T11:40:55;102147.72;;;4.36;100.00
75136;BME280;63707;52.212;9.540;2023-02-04T11:43:22;102145.88;;;4.37;100.00
75136;BME280;63707;52.212;9.540;2023-02-04T11:45:48;102152.38;;;3.48;100.00
75136;BME280;63707;52.212;9.540;2023-02-04T11:48:24;102157.03;;;3.96;100.00
75136;BME280;63707;52.212;9.540;2023-02-04T11:50:54;102154.13;;;4.23;100.00
75136;BME280;63707;52.212;9.540;2023-02-04T11:53:23;102158.38;;;3.65;100.00
75136;BME280;63707;52.212;9.540;2023-02-04T11:55:49;102152.66;;;4.42;100.00
75136;BME280;63707;52.212;9.540;2023-02-04T11:58:17;102149.63;;;6.18;100.00
75136;BME280;63707;52.212;9.540;2023-02-04T12:00:44;102157.25;;;5.79;100.00
75136;BME280;63707;52.212;9.540;2023-02-04T12:03:21;102138.78;;;6.07;100.00
75136;BME280;63707;52.212;9.540;2023-02-04T12:05:48;102145.22;;;5.72;100.00
75136;BME280;63707;52.212;9.540;2023-02-04T12:08:24;102152.69;;;6.24;100.00
75136;BME280;63707;52.212;9.540;2023-02-04T12:10:59;102152.41;;;9.11;100.00
75136;BME280;63707;52.212;9.540;2023-02-04T12:13:26;102153.06;;;6.84;100.00
75136;BME280;63707;52.212;9.540;2023-02-04T12:15:57;102156.47;;;6.33;100.00
75136;BME280;63707;52.212;9.540;2023-02-04T12:18:24;102152.03;;;7.17;100.00
75136;BME280;63707;52.212;9.540;2023-02-04T12:20:52;102153.75;;;7.69;100.00
75136;BME280;63707;52.212;9.540;2023-02-04T12:23:17;102157.63;;;6.62;100.00
75136;BME280;63707;52.212;9.540;2023-02-04T12:25:43;102156.63;;;6.52;100.00
75136;BME280;63707;52.212;9.540;2023-02-04T12:28:08;102161.09;;;4.97;100.00
75136;BME280;63707;52.212;9.540;2023-02-04T12:30:34;102166.25;;;5.00;100.00
75136;BME280;63707;52.212;9.540;2023-02-04T12:33:01;102166.97;;;5.59;100.00
75136;BME280;63707;52.212;9.540;2023-02-04T12:35:27;102164.53;;;5.79;100.00
75136;BME280;63707;52.212;9.540;2023-02-04T12:37:52;102161.38;;;5.16;100.00
75136;BME280;63707;52.212;9.540;2023-02-04T12:40:19;102162.06;;;4.96;100.00
75136;BME280;63707;52.212;9.540;2023-02-04T12:42:45;102179.69;;;4.78;100.00
75136;BME280;63707;52.212;9.540;2023-02-04T12:45:12;102165.38;;;5.79;100.00
75136;BME280;63707;52.212;9.540;2023-02-04T12:47:38;102168.22;;;5.09;100.00
75136;BME280;63707;52.212;9.540;2023-02-04T12:50:07;102178.34;;;4.83;100.00